createdAt,value
2022-09-22T00:00:42.544Z,0
2022-09-22T00:05:44.509Z,0
2022-09-22T00:10:46.054Z,0
2022-09-22T00:15:47.790Z,0
2022-09-22T00:20:49.471Z,0
2022-09-22T00:25:51.105Z,0
2022-09-22T00:30:52.846Z,0
2022-09-22T00:35:54.821Z,0
2022-09-22T00:40:56.424Z,0
2022-09-22T00:45:58.045Z,0
2022-09-22T00:50:59.824Z,0
2022-09-22T00:56:01.590Z,0
2022-09-22T01:01:03.477Z,0
2022-09-22T01:06:05.215Z,0
2022-09-22T01:11:06.964Z,0
2022-09-22T01:16:08.658Z,0
2022-09-22T01:21:10.109Z,0
2022-09-22T01:26:11.571Z,0
2022-09-22T01:31:13.162Z,0
2022-09-22T01:36:15.470Z,0
2022-09-22T01:41:16.926Z,0
2022-09-22T01:46:18.493Z,0
2022-09-22T01:51:20.159Z,0
2022-09-22T01:56:21.803Z,0
2022-09-22T02:01:23.731Z,0
2022-09-22T02:06:25.825Z,0
2022-09-22T02:11:27.543Z,0
2022-09-22T02:16:29.242Z,0
2022-09-22T02:21:31.027Z,0
2022-09-22T02:26:32.773Z,0
2022-09-22T02:31:34.555Z,0
2022-09-22T02:36:36.711Z,0
2022-09-22T02:41:38.411Z,0
2022-09-22T02:46:40.259Z,0
2022-09-22T02:51:42.201Z,0
2022-09-22T02:56:44.030Z,0
2022-09-22T03:01:45.935Z,0
2022-09-22T03:06:48.112Z,0
2022-09-22T03:11:49.875Z,0
2022-09-22T03:16:51.602Z,0
2022-09-22T03:21:53.242Z,0
2022-09-22T03:26:54.948Z,0.88715
2022-09-22T03:31:56.680Z,0.88715
2022-09-22T03:36:58.730Z,0
2022-09-22T03:42:00.493Z,0.47405
2022-09-22T03:47:02.282Z,3.85445
2022-09-22T03:52:03.810Z,6.54705
2022-09-22T03:57:05.582Z,14.68
2022-09-22T04:02:07.439Z,33.2696
2022-09-22T04:07:09.223Z,46.9722
2022-09-22T04:12:10.792Z,69.6007
2022-09-22T04:17:12.340Z,83.24815
2022-09-22T04:22:13.812Z,113.58555
2022-09-22T04:27:20.116Z,129.61185
2022-09-22T04:32:23.856Z,162.77115
2022-09-22T04:37:27.439Z,182.8002
2022-09-22T04:42:29.074Z,206.48025
2022-09-22T04:47:30.793Z,221.91705
2022-09-22T04:52:32.552Z,286.26185
2022-09-22T04:57:34.309Z,310.86415
2022-09-22T05:02:36.058Z,352.34085
2022-09-22T05:07:37.927Z,420.13505
2022-09-22T05:12:39.572Z,472.4183
2022-09-22T05:17:41.328Z,590.3755
2022-09-22T05:22:43.005Z,582.05995
2022-09-22T05:27:44.714Z,670.602
2022-09-22T05:32:46.460Z,777.1613
2022-09-22T05:37:48.777Z,642.51415
2022-09-22T05:42:50.366Z,632.50055
2022-09-22T05:47:51.998Z,592.31685
2022-09-22T05:52:53.691Z,609.6723
2022-09-22T05:57:55.391Z,638.64625
2022-09-22T06:02:57.165Z,651.5406
2022-09-22T06:13:10.181Z,672.8038
2022-09-22T06:18:14.927Z,680.49555
2022-09-22T06:23:16.980Z,697.73885
2022-09-22T06:28:18.636Z,700.70905
2022-09-22T06:33:20.182Z,757.67955
2022-09-22T06:38:21.660Z,723.37
2022-09-22T06:43:24.357Z,571.2877
2022-09-22T06:48:25.833Z,586.61605
2022-09-22T06:53:27.711Z,663.30185
2022-09-22T06:58:29.436Z,705.7958
2022-09-22T07:03:30.923Z,915.5938
2022-09-22T07:08:32.545Z,836.58615
2022-09-22T07:13:34.487Z,632.5177
2022-09-22T07:18:36.190Z,967.8942
2022-09-22T07:23:37.802Z,1039.32595
2022-09-22T07:28:39.494Z,1033.7373
2022-09-22T07:33:41.183Z,689.17075
2022-09-22T07:38:42.868Z,636.336
2022-09-22T07:43:44.852Z,1046.73825
2022-09-22T07:48:46.586Z,1100.31265
2022-09-22T07:53:48.356Z,1134.3599
2022-09-22T07:58:50.185Z,1068.2582
2022-09-22T08:03:51.990Z,1086.29815
2022-09-22T08:08:53.874Z,1154.0715
2022-09-22T08:13:56.470Z,1239.2573
2022-09-22T08:18:58.211Z,1263.1598
2022-09-22T08:23:59.974Z,1047.4858
2022-09-22T08:29:01.757Z,1285.25395
2022-09-22T08:34:03.571Z,1383.16495
2022-09-22T08:39:05.467Z,1381.9118
2022-09-22T08:44:07.661Z,759.728
2022-09-22T08:49:09.406Z,1375.67665
2022-09-22T08:54:10.875Z,1516.07975
2022-09-22T08:59:12.383Z,1153.78095
2022-09-22T09:04:13.847Z,740.256
2022-09-22T09:09:15.408Z,1449.0785
2022-09-22T09:14:17.961Z,1463.9601
2022-09-22T09:19:19.424Z,1509.31025
2022-09-22T09:29:52.631Z,1527.2552
2022-09-22T09:34:55.911Z,1572.9191
2022-09-22T09:39:57.513Z,1592.6344
2022-09-22T09:44:59.273Z,1638.5189
2022-09-22T09:50:00.930Z,1675.66195
2022-09-22T09:55:02.581Z,1701.6657
2022-09-22T10:00:04.126Z,1668.5444
2022-09-22T10:05:05.610Z,1743.6596
2022-09-22T10:10:07.292Z,1809.48
2022-09-22T10:15:08.930Z,1844.5941
2022-09-22T10:20:10.402Z,1880.2977
2022-09-22T10:25:11.944Z,1937.85585
2022-09-22T10:30:13.575Z,1971.9374
2022-09-22T10:35:15.102Z,2011.36615
2022-09-22T10:40:16.682Z,2050.03995
2022-09-22T10:45:18.529Z,2077.31585
2022-09-22T10:50:20.005Z,2113.5728
2022-09-22T10:55:21.454Z,2120.6542
2022-09-22T11:00:23.053Z,2143.0241
2022-09-22T11:05:24.456Z,2168.0866
2022-09-22T11:10:26.037Z,2207.5895
2022-09-22T11:15:28.265Z,2266.1612
2022-09-22T11:20:30.012Z,2289.0103
2022-09-22T11:25:31.742Z,2266.7317
2022-09-22T11:30:33.786Z,2290.9271
2022-09-22T11:35:35.369Z,2308.6306
2022-09-22T11:40:36.948Z,2303.5953
2022-09-22T11:45:38.830Z,2287.75345
2022-09-22T11:50:40.317Z,2291.9578
2022-09-22T11:55:41.863Z,2303.02295
2022-09-22T12:00:43.612Z,2329.80065
2022-09-22T12:05:45.166Z,2320.7816
2022-09-22T12:10:46.634Z,2333.78255
2022-09-22T12:15:49.374Z,2275.80035
2022-09-22T12:20:50.921Z,2282.3284
2022-09-22T12:25:52.400Z,2265.435
2022-09-22T12:30:54.226Z,2253.6682
2022-09-22T12:35:56.019Z,2254.94035
2022-09-22T12:40:57.771Z,2212.1725
2022-09-22T12:45:59.796Z,2186.88755
2022-09-22T12:51:01.629Z,2181.7971
2022-09-22T12:56:03.358Z,2174.86215
2022-09-22T13:01:05.305Z,2143.15945
2022-09-22T13:06:07.092Z,2115.8094
2022-09-22T13:11:08.830Z,2081.8933
2022-09-22T13:16:10.853Z,2068.48545
2022-09-22T13:21:12.331Z,2015.1868
2022-09-22T13:26:13.828Z,1990.65865
2022-09-22T13:31:15.561Z,1965.1341
2022-09-22T13:36:17.220Z,1906.33995
2022-09-22T13:41:18.903Z,1915.8192
2022-09-22T13:46:20.860Z,1833.364
2022-09-22T13:51:22.641Z,1790.11695
2022-09-22T13:56:24.375Z,1769.2588
2022-09-22T14:01:26.309Z,1691.26655
2022-09-22T14:06:28.073Z,1636.58545
2022-09-22T14:11:29.836Z,1585.3899
2022-09-22T14:16:32.103Z,1529.17805
2022-09-22T14:21:33.935Z,1448.93625
2022-09-22T14:26:35.367Z,1409.67295
2022-09-22T14:31:37.188Z,1318.6056
2022-09-22T14:36:39.083Z,1260.32865
2022-09-22T14:41:40.802Z,1179.7731
2022-09-22T14:46:42.785Z,1076.09085
2022-09-22T14:51:44.492Z,967.44745
2022-09-22T14:56:46.242Z,853.6033
2022-09-22T15:01:48.004Z,739.13165
2022-09-22T15:06:49.562Z,600.2973
2022-09-22T15:11:51.290Z,462.42135
2022-09-22T15:16:53.325Z,345.17415
2022-09-22T15:21:54.957Z,265.7691
2022-09-22T15:26:56.701Z,202.1267
2022-09-22T15:31:58.514Z,148.08405
2022-09-22T15:37:00.262Z,111.04825
2022-09-22T15:42:02.176Z,82.07145
2022-09-22T15:47:04.137Z,70.35935
2022-09-22T15:52:05.961Z,55.64135
2022-09-22T15:57:07.695Z,40.57345
2022-09-22T16:02:09.510Z,24.41785
2022-09-22T16:07:11.375Z,9.5534
2022-09-22T16:12:12.878Z,4.5628
2022-09-22T16:17:15.092Z,2.54805
2022-09-22T16:22:16.605Z,0.9481
2022-09-22T16:27:18.256Z,0
2022-09-22T16:32:19.834Z,0.88715
2022-09-22T16:37:21.379Z,0.88715
2022-09-22T16:42:23.824Z,0.88715
2022-09-22T16:47:25.879Z,0
2022-09-22T16:52:27.620Z,0
2022-09-22T16:57:29.264Z,0
2022-09-22T17:02:31.068Z,0
2022-09-22T17:07:32.722Z,0
2022-09-22T17:12:34.537Z,0.88715
2022-09-22T17:17:36.420Z,0
2022-09-22T17:22:38.053Z,0.88715
2022-09-22T17:27:39.744Z,0
2022-09-22T17:32:41.369Z,0
2022-09-22T17:37:43.010Z,0
2022-09-22T17:42:44.750Z,0
2022-09-22T17:47:46.699Z,0
2022-09-22T17:52:48.418Z,0
2022-09-22T17:57:50.131Z,0
2022-09-22T18:02:51.969Z,0
2022-09-22T18:07:53.892Z,0
2022-09-22T18:12:55.688Z,0
2022-09-22T18:17:57.648Z,0
2022-09-22T18:22:59.462Z,0
2022-09-22T18:28:01.277Z,0
2022-09-22T18:33:03.137Z,0
2022-09-22T18:38:04.886Z,0
2022-09-22T18:43:06.670Z,0
2022-09-22T18:48:09.737Z,0
2022-09-22T18:53:11.471Z,0
2022-09-22T18:58:13.189Z,0
2022-09-22T19:03:14.736Z,0
2022-09-22T19:08:16.306Z,0
2022-09-22T19:13:17.857Z,0
2022-09-22T19:18:19.768Z,0
2022-09-22T19:23:21.206Z,0
2022-09-22T19:28:22.741Z,0
2022-09-22T19:33:24.191Z,0
2022-09-22T19:38:25.632Z,0
2022-09-22T19:43:27.185Z,0.88715
2022-09-22T19:48:28.919Z,0
2022-09-22T19:53:30.457Z,0
2022-09-22T19:58:32.183Z,0
2022-09-22T20:03:33.680Z,0
2022-09-22T20:08:35.132Z,0
2022-09-22T20:13:36.759Z,0
2022-09-22T20:18:41.349Z,0
2022-09-22T20:23:43.014Z,0
2022-09-22T20:28:44.514Z,0
2022-09-22T20:33:45.943Z,0
2022-09-22T20:38:47.599Z,0
2022-09-22T20:43:49.027Z,0
2022-09-22T20:48:51.228Z,0
2022-09-22T20:53:53.060Z,0
2022-09-22T20:58:54.785Z,0
2022-09-22T21:03:56.626Z,0
2022-09-22T21:08:58.371Z,0
2022-09-22T21:13:59.860Z,0
2022-09-22T21:19:01.963Z,0
2022-09-22T21:24:03.922Z,0
2022-09-22T21:29:05.720Z,0
2022-09-22T21:34:07.290Z,0
2022-09-22T21:39:09.002Z,0
2022-09-22T21:44:10.821Z,0
2022-09-22T21:49:12.564Z,0
2022-09-22T21:54:14.001Z,0
2022-09-22T21:59:15.436Z,0
2022-09-22T22:04:17.260Z,0
2022-09-22T22:09:18.834Z,0
2022-09-22T22:14:20.313Z,0
2022-09-22T22:19:22.044Z,0
2022-09-22T22:24:23.587Z,0
2022-09-22T22:29:25.227Z,0
2022-09-22T22:34:26.762Z,0
2022-09-22T22:39:28.437Z,0
2022-09-22T22:44:29.992Z,0
2022-09-22T22:49:31.718Z,0
2022-09-22T22:54:33.465Z,0
2022-09-22T22:59:34.919Z,0
2022-09-22T23:04:36.547Z,0
2022-09-22T23:09:38.266Z,0
2022-09-22T23:14:40.057Z,0
2022-09-22T23:19:41.884Z,0
2022-09-22T23:24:43.573Z,0
2022-09-22T23:29:45.035Z,0
2022-09-22T23:34:46.818Z,0
2022-09-22T23:39:48.245Z,0
2022-09-22T23:44:49.909Z,0
2022-09-22T23:49:51.626Z,0
2022-09-22T23:54:53.167Z,0
2022-09-22T23:59:54.701Z,0
